createdAt,value
2023-03-25T00:00:15.020Z,12.70
2023-03-25T00:02:45.927Z,12.70
2023-03-25T00:05:15.048Z,12.70
2023-03-25T00:07:46.689Z,12.60
2023-03-25T00:10:15.124Z,12.60
2023-03-25T00:12:43.029Z,12.60
2023-03-25T00:15:12.079Z,12.60
2023-03-25T00:17:39.709Z,12.60
2023-03-25T00:20:11.972Z,12.50
2023-03-25T00:22:44.636Z,12.50
2023-03-25T00:25:17.604Z,12.50
2023-03-25T00:27:46.393Z,12.40
2023-03-25T00:30:14.745Z,12.40
2023-03-25T00:32:42.094Z,12.30
2023-03-25T00:35:09.396Z,12.30
2023-03-25T00:37:36.254Z,12.30
2023-03-25T00:40:03.795Z,12.30
2023-03-25T00:42:30.548Z,12.30
2023-03-25T00:44:57.334Z,12.20
2023-03-25T00:47:24.469Z,12.30
2023-03-25T00:49:52.004Z,12.20
2023-03-25T00:52:19.436Z,12.20
2023-03-25T00:54:46.565Z,12.10
2023-03-25T00:57:14.042Z,12.10
2023-03-25T00:59:40.929Z,12.10
2023-03-25T01:02:07.661Z,12.10
2023-03-25T01:04:40.057Z,12.10
2023-03-25T01:07:08.661Z,12.10
2023-03-25T01:09:35.367Z,12.00
2023-03-25T01:12:02.318Z,11.90
2023-03-25T01:14:29.267Z,11.90
2023-03-25T01:16:56.196Z,11.90
2023-03-25T01:19:23.607Z,11.90
2023-03-25T01:21:51.049Z,11.90
2023-03-25T01:24:17.919Z,11.90
2023-03-25T01:26:46.038Z,11.90
2023-03-25T01:29:14.915Z,11.90
2023-03-25T01:31:41.744Z,11.90
2023-03-25T01:34:10.405Z,11.90
2023-03-25T01:36:39.965Z,11.90
2023-03-25T01:39:08.805Z,11.90
2023-03-25T01:41:48.936Z,11.90
2023-03-25T01:44:19.716Z,11.80
2023-03-25T01:46:53.565Z,11.80
2023-03-25T01:49:23.950Z,11.80
2023-03-25T01:52:03.828Z,11.80
2023-03-25T01:54:31.035Z,11.80
2023-03-25T01:56:58.200Z,11.80
2023-03-25T01:59:28.515Z,11.70
2023-03-25T02:01:56.007Z,11.70
2023-03-25T02:04:44.164Z,11.70
2023-03-25T02:07:12.015Z,11.70
2023-03-25T02:09:40.122Z,11.70
2023-03-25T02:12:06.988Z,11.70
2023-03-25T02:14:37.172Z,11.70
2023-03-25T02:17:29.180Z,11.70
2023-03-25T02:20:09.211Z,11.60
2023-03-25T02:22:50.054Z,11.60
2023-03-25T02:25:41.711Z,11.60
2023-03-25T02:28:36.423Z,11.60
2023-03-25T02:31:25.524Z,11.60
2023-03-25T02:34:29.293Z,11.50
2023-03-25T02:37:30.029Z,11.50
2023-03-25T02:40:07.942Z,11.50
2023-03-25T02:42:54.570Z,11.40
2023-03-25T02:45:32.444Z,11.40
2023-03-25T02:48:04.743Z,11.40
2023-03-25T02:50:43.778Z,11.40
2023-03-25T02:53:15.466Z,11.30
2023-03-25T02:55:48.190Z,11.30
2023-03-25T02:58:21.645Z,11.30
2023-03-25T03:00:50.604Z,11.20
2023-03-25T03:03:17.698Z,11.30
2023-03-25T03:05:51.388Z,11.20
2023-03-25T03:08:30.411Z,11.10
2023-03-25T03:10:59.859Z,11.20
2023-03-25T03:13:29.344Z,11.20
2023-03-25T03:16:43.945Z,11.10
2023-03-25T03:19:38.385Z,11.10
2023-03-25T03:22:25.829Z,11.00
2023-03-25T03:25:13.401Z,11.00
2023-03-25T03:27:49.338Z,10.90
2023-03-25T03:30:27.310Z,10.80
2023-03-25T03:33:05.357Z,10.70
2023-03-25T03:35:38.499Z,10.60
2023-03-25T03:38:11.946Z,10.60
2023-03-25T03:40:43.275Z,10.60
2023-03-25T03:43:16.815Z,10.60
2023-03-25T03:45:48.604Z,10.60
2023-03-25T03:48:26.953Z,10.60
2023-03-25T03:51:03.242Z,10.60
2023-03-25T03:53:36.399Z,10.50
2023-03-25T03:56:08.125Z,10.60
2023-03-25T03:58:43.172Z,10.50
2023-03-25T04:01:46.307Z,10.60
2023-03-25T04:04:24.167Z,10.60
2023-03-25T04:07:15.846Z,10.70
2023-03-25T04:09:45.293Z,10.60
2023-03-25T04:12:22.608Z,10.70
2023-03-25T04:14:49.414Z,10.60
2023-03-25T04:17:16.687Z,10.60
2023-03-25T04:19:49.271Z,10.60
2023-03-25T04:22:18.500Z,10.60
2023-03-25T04:24:45.611Z,10.60
2023-03-25T04:27:14.005Z,10.50
2023-03-25T04:29:40.880Z,10.50
2023-03-25T04:32:08.991Z,10.50
2023-03-25T04:34:35.929Z,10.50
2023-03-25T04:37:03.132Z,10.50
2023-03-25T04:39:32.191Z,10.40
2023-03-25T04:42:03.675Z,10.40
2023-03-25T04:44:33.819Z,10.40
2023-03-25T04:47:02.293Z,10.40
2023-03-25T04:49:29.195Z,10.40
2023-03-25T04:51:57.409Z,10.50
2023-03-25T04:54:24.305Z,10.40
2023-03-25T04:56:52.405Z,10.40
2023-03-25T04:59:21.457Z,10.40
2023-03-25T05:01:49.048Z,10.40
2023-03-25T05:04:17.816Z,10.30
2023-03-25T05:06:50.606Z,10.30
2023-03-25T05:09:24.682Z,10.40
2023-03-25T05:11:53.372Z,10.40
2023-03-25T05:14:21.804Z,10.40
2023-03-25T05:16:49.268Z,10.30
2023-03-25T05:19:19.191Z,10.30
2023-03-25T05:21:46.136Z,10.30
2023-03-25T05:24:13.492Z,10.30
2023-03-25T05:26:42.145Z,10.20
2023-03-25T05:29:14.834Z,10.30
2023-03-25T05:31:46.693Z,10.30
2023-03-25T05:34:17.231Z,10.30
2023-03-25T05:36:44.624Z,10.30
2023-03-25T05:39:11.735Z,10.20
2023-03-25T05:41:39.247Z,10.20
2023-03-25T05:44:15.698Z,10.20
2023-03-25T05:46:42.513Z,10.30
2023-03-25T05:49:09.283Z,10.30
2023-03-25T05:51:38.111Z,10.30
2023-03-25T05:54:11.909Z,10.30
2023-03-25T05:56:39.536Z,10.20
2023-03-25T05:59:06.707Z,10.30
2023-03-25T06:01:34.387Z,10.30
2023-03-25T06:04:02.781Z,10.30
2023-03-25T06:06:39.590Z,10.30
2023-03-25T06:09:07.203Z,10.30
2023-03-25T06:11:40.290Z,10.30
2023-03-25T06:14:09.236Z,10.40
2023-03-25T06:16:36.223Z,10.30
2023-03-25T06:19:03.485Z,10.30
2023-03-25T06:21:34.610Z,10.20
2023-03-25T06:24:03.215Z,10.30
2023-03-25T06:26:30.371Z,10.30
2023-03-25T06:28:58.518Z,10.40
2023-03-25T06:31:27.205Z,10.40
2023-03-25T06:33:56.174Z,10.40
2023-03-25T06:36:26.044Z,10.40
2023-03-25T06:38:54.179Z,10.40
2023-03-25T06:41:22.101Z,10.50
2023-03-25T06:43:49.794Z,10.50
2023-03-25T06:46:17.211Z,10.50
2023-03-25T06:48:44.482Z,10.50
2023-03-25T06:51:11.912Z,10.50
2023-03-25T06:53:44.341Z,10.50
2023-03-25T06:56:11.142Z,10.50
2023-03-25T06:58:38.099Z,10.50
2023-03-25T07:01:07.647Z,10.50
2023-03-25T07:03:36.398Z,10.60
2023-03-25T07:06:04.431Z,10.60
2023-03-25T07:08:31.453Z,10.60
2023-03-25T07:11:06.485Z,10.60
2023-03-25T07:13:34.003Z,10.70
2023-03-25T07:16:01.503Z,10.60
2023-03-25T07:18:28.389Z,10.80
2023-03-25T07:20:57.312Z,10.80
2023-03-25T07:23:24.166Z,10.90
2023-03-25T07:25:51.275Z,10.90
2023-03-25T07:28:18.609Z,10.90
2023-03-25T07:30:45.317Z,10.90
2023-03-25T07:33:12.252Z,10.90
2023-03-25T07:35:39.148Z,10.90
2023-03-25T07:38:06.361Z,10.90
2023-03-25T07:40:33.239Z,10.90
2023-03-25T07:43:00.002Z,10.90
2023-03-25T07:45:27.207Z,10.90
2023-03-25T07:47:54.366Z,10.90
2023-03-25T07:50:25.333Z,11.00
2023-03-25T07:52:53.547Z,11.00
2023-03-25T07:55:20.922Z,11.10
2023-03-25T07:57:47.735Z,11.10
2023-03-25T08:00:14.722Z,11.20
2023-03-25T08:02:42.314Z,11.20
2023-03-25T08:05:09.698Z,11.30
2023-03-25T08:07:36.551Z,11.40
2023-03-25T08:10:04.092Z,11.50
2023-03-25T08:12:30.986Z,11.50
2023-03-25T08:15:00.375Z,11.50
2023-03-25T08:17:27.174Z,11.50
2023-03-25T08:19:54.013Z,11.60
2023-03-25T08:22:20.749Z,11.60
2023-03-25T08:24:47.587Z,11.70
2023-03-25T08:27:16.711Z,11.70
2023-03-25T08:29:44.635Z,11.70
2023-03-25T08:32:12.351Z,11.70
2023-03-25T08:34:42.149Z,11.70
2023-03-25T08:37:10.122Z,11.80
2023-03-25T08:39:40.317Z,11.70
2023-03-25T08:42:08.656Z,11.80
2023-03-25T08:44:35.651Z,11.80
2023-03-25T08:47:06.719Z,11.80
2023-03-25T08:49:33.742Z,11.80
2023-03-25T08:52:03.377Z,11.90
2023-03-25T08:54:33.847Z,12.00
2023-03-25T08:57:05.122Z,12.00
2023-03-25T08:59:38.106Z,12.10
2023-03-25T09:02:05.069Z,12.10
2023-03-25T09:04:32.145Z,12.10
2023-03-25T09:07:12.073Z,12.00
2023-03-25T09:09:41.400Z,12.20
2023-03-25T09:12:09.377Z,12.30
2023-03-25T09:14:36.390Z,12.30
2023-03-25T09:17:03.363Z,12.40
2023-03-25T09:19:30.184Z,12.40
2023-03-25T09:21:56.979Z,12.40
2023-03-25T09:24:23.792Z,12.50
2023-03-25T09:26:50.908Z,12.50
2023-03-25T09:29:17.687Z,12.60
2023-03-25T09:31:44.410Z,12.60
2023-03-25T09:34:11.931Z,12.70
2023-03-25T09:36:38.887Z,12.70
2023-03-25T09:39:06.186Z,12.80
2023-03-25T09:41:39.025Z,12.90
2023-03-25T09:44:08.390Z,13.00
2023-03-25T09:46:38.950Z,13.10
2023-03-25T09:49:16.367Z,13.10
2023-03-25T09:51:45.724Z,13.20
2023-03-25T09:54:26.321Z,13.40
2023-03-25T09:56:57.171Z,13.50
2023-03-25T09:59:49.591Z,13.60
2023-03-25T10:02:52.424Z,13.60
2023-03-25T10:05:38.496Z,13.70
2023-03-25T10:08:24.402Z,13.80
2023-03-25T10:11:08.069Z,13.80
2023-03-25T10:13:45.342Z,13.90
2023-03-25T10:16:35.958Z,14.10
2023-03-25T10:19:30.382Z,14.00
2023-03-25T10:22:03.329Z,13.80
2023-03-25T10:24:41.846Z,13.80
2023-03-25T10:27:44.466Z,14.00
2023-03-25T10:30:26.380Z,14.10
2023-03-25T10:32:57.273Z,14.00
2023-03-25T10:35:28.357Z,14.10
2023-03-25T10:37:59.660Z,14.10
2023-03-25T10:40:40.132Z,14.00
2023-03-25T10:43:25.791Z,14.10
2023-03-25T10:45:57.355Z,14.00
2023-03-25T10:48:31.951Z,14.00
2023-03-25T10:51:13.889Z,13.90
2023-03-25T10:53:42.102Z,13.90
2023-03-25T10:56:22.721Z,13.90
2023-03-25T10:58:53.622Z,14.00
2023-03-25T11:01:28.936Z,14.40
2023-03-25T11:03:58.136Z,14.80
2023-03-25T11:06:29.764Z,14.80
2023-03-25T11:09:18.373Z,14.80
2023-03-25T11:11:46.757Z,14.70
2023-03-25T11:14:15.106Z,14.70
2023-03-25T11:16:52.073Z,14.60
2023-03-25T11:19:54.171Z,14.60
2023-03-25T11:22:30.569Z,14.50
2023-03-25T11:25:07.811Z,14.50
2023-03-25T11:28:02.161Z,14.60
2023-03-25T11:30:29.132Z,14.70
2023-03-25T11:33:13.955Z,14.90
2023-03-25T11:35:46.855Z,14.90
2023-03-25T11:38:23.125Z,15.00
2023-03-25T11:40:57.945Z,15.20
2023-03-25T11:43:37.056Z,15.30
2023-03-25T11:46:23.604Z,15.30
2023-03-25T11:48:52.423Z,15.30
2023-03-25T11:51:27.508Z,15.40
2023-03-25T11:54:06.069Z,15.30
2023-03-25T11:56:40.727Z,15.40
2023-03-25T11:59:21.570Z,15.40
2023-03-25T12:01:52.682Z,15.40
2023-03-25T12:04:22.791Z,15.20
2023-03-25T12:06:55.158Z,15.20
2023-03-25T12:09:22.606Z,15.20
2023-03-25T12:12:07.533Z,15.30
2023-03-25T12:14:46.943Z,15.40
2023-03-25T12:17:36.412Z,15.50
2023-03-25T12:20:23.584Z,15.50
2023-03-25T12:23:08.977Z,15.50
2023-03-25T12:26:07.222Z,15.40
2023-03-25T12:29:23.193Z,15.50
2023-03-25T12:32:17.843Z,15.70
2023-03-25T12:35:14.816Z,16.00
2023-03-25T12:38:07.575Z,16.10
2023-03-25T12:40:56.224Z,16.30
2023-03-25T12:43:48.322Z,16.40
2023-03-25T12:46:41.350Z,16.50
2023-03-25T12:49:17.438Z,16.10
2023-03-25T12:52:15.613Z,16.00
2023-03-25T12:55:20.047Z,15.80
2023-03-25T12:57:56.919Z,15.60
2023-03-25T13:00:26.778Z,15.20
2023-03-25T13:03:15.038Z,14.80
2023-03-25T13:06:09.105Z,14.20
2023-03-25T13:08:42.405Z,13.90
2023-03-25T13:11:16.368Z,13.60
2023-03-25T13:13:46.106Z,13.00
2023-03-25T13:16:27.262Z,12.70
2023-03-25T13:19:19.714Z,12.60
2023-03-25T13:21:53.077Z,12.60
2023-03-25T13:24:24.933Z,12.50
2023-03-25T13:26:56.096Z,12.40
2023-03-25T13:29:37.260Z,12.40
2023-03-25T13:32:12.951Z,12.40
2023-03-25T13:34:52.651Z,12.50
2023-03-25T13:37:24.479Z,12.50
2023-03-25T13:40:13.861Z,12.50
2023-03-25T13:43:26.948Z,12.60
2023-03-25T13:46:07.480Z,12.60
2023-03-25T13:48:53.172Z,12.70
2023-03-25T13:51:20.052Z,12.80
2023-03-25T13:53:56.866Z,12.80
2023-03-25T13:57:01.667Z,12.80
2023-03-25T13:59:48.798Z,12.80
2023-03-25T14:02:45.061Z,12.70
2023-03-25T14:05:39.720Z,12.60
2023-03-25T14:08:20.816Z,12.60
2023-03-25T14:10:53.040Z,12.60
2023-03-25T14:13:43.759Z,12.60
2023-03-25T14:16:15.474Z,12.60
2023-03-25T14:18:46.135Z,12.60
2023-03-25T14:21:31.374Z,12.70
2023-03-25T14:24:16.270Z,12.60
2023-03-25T14:27:00.506Z,12.60
2023-03-25T14:29:41.986Z,12.60
2023-03-25T14:32:18.445Z,12.50
2023-03-25T14:34:50.008Z,12.50
2023-03-25T14:37:26.151Z,12.40
2023-03-25T14:40:00.336Z,12.40
2023-03-25T14:43:02.215Z,12.40
2023-03-25T14:45:35.815Z,12.40
2023-03-25T14:48:19.495Z,12.50
2023-03-25T14:51:09.796Z,12.60
2023-03-25T14:53:38.971Z,12.60
2023-03-25T14:56:19.703Z,12.60
2023-03-25T14:58:52.829Z,12.60
2023-03-25T15:01:22.962Z,12.60
2023-03-25T15:03:50.842Z,12.60
2023-03-25T15:06:29.787Z,12.60
2023-03-25T15:08:59.937Z,12.50
2023-03-25T15:11:34.117Z,12.50
2023-03-25T15:14:16.145Z,12.50
2023-03-25T15:16:49.948Z,12.50
2023-03-25T15:19:18.622Z,12.30
2023-03-25T15:21:57.592Z,12.20
2023-03-25T15:24:36.650Z,12.00
2023-03-25T15:27:21.347Z,11.70
2023-03-25T15:30:17.122Z,11.60
2023-03-25T15:33:06.250Z,11.50
2023-03-25T15:35:54.286Z,11.40
2023-03-25T15:38:45.154Z,11.40
2023-03-25T15:41:36.908Z,11.30
2023-03-25T15:44:28.473Z,11.30
2023-03-25T15:47:34.678Z,11.30
2023-03-25T15:50:41.133Z,11.30
2023-03-25T15:53:41.784Z,11.20
2023-03-25T15:56:19.111Z,11.20
2023-03-25T15:59:07.151Z,11.20
2023-03-25T16:01:41.714Z,11.20
2023-03-25T16:04:18.838Z,11.20
2023-03-25T16:06:51.133Z,11.20
2023-03-25T16:09:27.230Z,11.20
2023-03-25T16:12:00.437Z,11.10
2023-03-25T16:14:32.063Z,11.10
2023-03-25T16:17:03.237Z,11.10
2023-03-25T16:19:48.988Z,11.10
2023-03-25T16:22:21.596Z,11.10
2023-03-25T16:24:50.361Z,11.10
2023-03-25T16:27:36.029Z,11.10
2023-03-25T16:30:03.765Z,11.10
2023-03-25T16:32:35.536Z,11.10
2023-03-25T16:35:02.302Z,11.10
2023-03-25T16:37:32.960Z,11.10
2023-03-25T16:40:09.047Z,11.10
2023-03-25T16:42:37.216Z,11.00
2023-03-25T16:45:06.041Z,11.00
2023-03-25T16:47:33.755Z,10.90
2023-03-25T16:50:02.892Z,10.90
2023-03-25T16:52:33.256Z,10.90
2023-03-25T16:55:04.988Z,10.80
2023-03-25T16:57:39.067Z,10.80
2023-03-25T17:00:17.888Z,10.70
2023-03-25T17:02:48.446Z,10.70
2023-03-25T17:05:27.568Z,10.70
2023-03-25T17:08:08.105Z,10.60
2023-03-25T17:10:53.661Z,10.60
2023-03-25T17:13:28.019Z,10.50
2023-03-25T17:15:56.859Z,10.50
2023-03-25T17:18:28.859Z,10.40
2023-03-25T17:20:58.580Z,10.40
2023-03-25T17:23:46.873Z,10.30
2023-03-25T17:26:19.916Z,10.30
2023-03-25T17:29:00.603Z,10.30
2023-03-25T17:31:39.415Z,10.20
2023-03-25T17:34:08.137Z,10.20
2023-03-25T17:36:38.440Z,10.20
2023-03-25T17:39:16.089Z,10.20
2023-03-25T17:41:43.435Z,10.10
2023-03-25T17:44:18.165Z,10.10
2023-03-25T17:46:45.026Z,10.00
2023-03-25T17:49:17.696Z,10.00
2023-03-25T17:51:45.392Z,10.00
2023-03-25T17:54:14.446Z,9.90
2023-03-25T17:56:41.858Z,9.90
2023-03-25T17:59:16.670Z,9.90
2023-03-25T18:01:43.674Z,9.80
2023-03-25T18:04:14.434Z,9.80
2023-03-25T18:06:43.031Z,9.70
2023-03-25T18:09:29.978Z,9.70
2023-03-25T18:11:57.749Z,9.70
2023-03-25T18:14:25.440Z,9.70
2023-03-25T18:16:54.612Z,9.70
2023-03-25T18:19:24.599Z,9.70
2023-03-25T18:21:51.855Z,9.70
2023-03-25T18:24:19.059Z,9.60
2023-03-25T18:26:48.425Z,9.60
2023-03-25T18:29:25.352Z,9.60
2023-03-25T18:31:52.706Z,9.60
2023-03-25T18:34:20.904Z,9.60
2023-03-25T18:36:49.419Z,9.50
2023-03-25T18:39:18.790Z,9.50
2023-03-25T18:41:46.080Z,9.40
2023-03-25T18:44:13.488Z,9.30
2023-03-25T18:46:40.658Z,9.30
2023-03-25T18:49:20.361Z,9.30
2023-03-25T18:51:50.851Z,9.20
2023-03-25T18:54:17.600Z,9.10
2023-03-25T18:56:46.981Z,9.10
2023-03-25T18:59:17.381Z,9.00
2023-03-25T19:01:44.195Z,9.00
2023-03-25T19:04:10.886Z,9.00
2023-03-25T19:06:39.432Z,9.00
2023-03-25T19:09:09.463Z,9.00
2023-03-25T19:11:36.440Z,8.90
2023-03-25T19:14:03.252Z,8.90
2023-03-25T19:16:30.071Z,8.80
2023-03-25T19:18:56.760Z,8.70
2023-03-25T19:21:23.801Z,8.70
2023-03-25T19:23:52.396Z,8.60
2023-03-25T19:26:19.339Z,8.50
2023-03-25T19:28:46.503Z,8.40
2023-03-25T19:31:18.758Z,8.40
2023-03-25T19:33:45.669Z,8.30
2023-03-25T19:36:18.984Z,8.30
2023-03-25T19:38:46.012Z,8.20
2023-03-25T19:41:15.549Z,8.20
2023-03-25T19:43:42.351Z,8.10
2023-03-25T19:46:09.444Z,8.10
2023-03-25T19:48:36.859Z,8.10
2023-03-25T19:51:04.013Z,8.00
2023-03-25T19:53:31.407Z,8.00
2023-03-25T19:56:03.289Z,7.90
2023-03-25T19:58:30.304Z,7.80
2023-03-25T20:00:57.461Z,7.70
2023-03-25T20:03:24.315Z,7.70
2023-03-25T20:06:02.366Z,7.60
2023-03-25T20:08:30.375Z,7.60
2023-03-25T20:10:57.324Z,7.50
2023-03-25T20:13:24.482Z,7.50
2023-03-25T20:15:55.467Z,7.50
2023-03-25T20:18:22.511Z,7.50
2023-03-25T20:20:49.219Z,7.40
2023-03-25T20:23:16.143Z,7.40
2023-03-25T20:25:43.941Z,7.50
2023-03-25T20:28:10.806Z,7.50
2023-03-25T20:30:37.565Z,7.60
2023-03-25T20:33:04.606Z,7.60
2023-03-25T20:35:31.957Z,7.70
2023-03-25T20:37:58.809Z,7.70
2023-03-25T20:40:37.331Z,7.80
2023-03-25T20:43:13.137Z,7.90
2023-03-25T20:45:39.866Z,7.90
2023-03-25T20:48:08.654Z,7.90
2023-03-25T20:50:37.232Z,7.90
2023-03-25T20:53:04.461Z,7.90
2023-03-25T20:55:31.422Z,7.90
2023-03-25T20:57:58.176Z,7.90
2023-03-25T21:00:24.875Z,7.90
2023-03-25T21:02:52.434Z,7.90
2023-03-25T21:05:19.267Z,7.90
2023-03-25T21:07:46.919Z,7.90
2023-03-25T21:10:13.885Z,7.90
2023-03-25T21:12:44.285Z,7.90
2023-03-25T21:15:12.118Z,7.90
2023-03-25T21:17:39.028Z,7.90
2023-03-25T21:20:09.522Z,7.90
2023-03-25T21:22:42.598Z,7.90
2023-03-25T21:25:10.419Z,7.80
2023-03-25T21:27:38.213Z,7.80
2023-03-25T21:30:07.629Z,7.80
2023-03-25T21:32:34.380Z,7.80
2023-03-25T21:35:01.155Z,7.80
2023-03-25T21:37:29.279Z,7.80
2023-03-25T21:39:58.040Z,7.70
2023-03-25T21:42:25.057Z,7.70
2023-03-25T21:44:52.024Z,7.70
2023-03-25T21:47:19.336Z,7.70
2023-03-25T21:49:46.039Z,7.80
2023-03-25T21:52:12.826Z,7.80
2023-03-25T21:54:43.480Z,7.90
2023-03-25T21:57:11.335Z,7.90
2023-03-25T21:59:38.536Z,7.90
2023-03-25T22:02:05.977Z,7.90
2023-03-25T22:04:34.925Z,7.90
2023-03-25T22:07:01.838Z,8.00
2023-03-25T22:09:28.879Z,8.00
2023-03-25T22:11:55.931Z,8.00
2023-03-25T22:14:23.007Z,8.00
2023-03-25T22:16:49.935Z,8.00
2023-03-25T22:19:17.101Z,8.00
2023-03-25T22:21:44.035Z,8.00
2023-03-25T22:24:11.163Z,8.00
2023-03-25T22:26:43.294Z,8.10
2023-03-25T22:29:11.524Z,8.00
2023-03-25T22:31:42.897Z,8.10
2023-03-25T22:34:15.847Z,8.20
2023-03-25T22:36:49.672Z,8.20
2023-03-25T22:39:23.303Z,8.20
2023-03-25T22:41:50.483Z,8.20
2023-03-25T22:44:18.096Z,8.30
2023-03-25T22:46:46.465Z,8.30
2023-03-25T22:49:13.890Z,8.30
2023-03-25T22:51:40.937Z,8.40
2023-03-25T22:54:10.110Z,8.40
2023-03-25T22:56:37.506Z,8.40
2023-03-25T22:59:06.993Z,8.40
2023-03-25T23:01:34.663Z,8.40
2023-03-25T23:04:01.581Z,8.40
2023-03-25T23:06:28.770Z,8.40
2023-03-25T23:08:57.164Z,8.40
2023-03-25T23:11:29.471Z,8.50
2023-03-25T23:13:59.431Z,8.40
2023-03-25T23:16:29.034Z,8.40
2023-03-25T23:18:56.943Z,8.40
2023-03-25T23:21:26.657Z,8.40
2023-03-25T23:23:56.963Z,8.40
2023-03-25T23:26:38.966Z,8.50
2023-03-25T23:29:09.133Z,8.50
2023-03-25T23:31:37.491Z,8.40
2023-03-25T23:34:06.801Z,8.40
2023-03-25T23:36:37.193Z,8.40
2023-03-25T23:39:11.582Z,8.40
2023-03-25T23:41:38.402Z,8.40
2023-03-25T23:44:05.806Z,8.40
2023-03-25T23:46:33.124Z,8.40
2023-03-25T23:49:03.885Z,8.40
2023-03-25T23:51:34.025Z,8.30
2023-03-25T23:54:01.286Z,8.30
2023-03-25T23:56:28.775Z,8.20
2023-03-25T23:58:56.316Z,8.20
